createdAt,value
2017-07-17T00:01:07.845Z,75.79
2017-07-17T00:03:36.195Z,76.19
2017-07-17T00:06:05.129Z,76.59
2017-07-17T00:08:33.464Z,76.73
2017-07-17T00:11:01.809Z,76.82
2017-07-17T00:13:30.411Z,76.84
2017-07-17T00:15:58.744Z,76.40
2017-07-17T00:18:27.108Z,76.32
2017-07-17T00:20:55.789Z,76.23
2017-07-17T00:23:24.138Z,76.46
2017-07-17T00:25:52.458Z,76.96
2017-07-17T00:28:21.461Z,76.92
2017-07-17T00:30:49.783Z,77.03
2017-07-17T00:33:18.119Z,77.14
2017-07-17T00:35:46.896Z,76.69
2017-07-17T00:38:15.268Z,77.06
2017-07-17T00:40:43.579Z,77.04
2017-07-17T00:43:12.197Z,77.33
2017-07-17T00:45:40.528Z,77.69
2017-07-17T00:48:08.867Z,77.96
2017-07-17T00:50:37.719Z,77.58
2017-07-17T00:53:06.041Z,76.98
2017-07-17T00:55:34.363Z,76.63
2017-07-17T00:58:03.230Z,77.20
2017-07-17T01:00:31.551Z,77.42
2017-07-17T01:02:59.868Z,77.29
2017-07-17T01:05:28.505Z,77.20
2017-07-17T01:07:56.829Z,76.81
2017-07-17T01:10:25.946Z,77.03
2017-07-17T01:12:54.921Z,76.77
2017-07-17T01:15:23.245Z,76.16
2017-07-17T01:17:51.575Z,76.54
2017-07-17T01:20:20.395Z,76.26
2017-07-17T01:22:48.726Z,76.07
2017-07-17T01:25:17.077Z,76.25
2017-07-17T01:27:45.676Z,76.33
2017-07-17T01:30:13.992Z,76.52
2017-07-17T01:32:43.107Z,76.71
2017-07-17T01:35:11.886Z,76.80
2017-07-17T01:37:40.224Z,76.99
2017-07-17T01:40:08.562Z,77.37
2017-07-17T01:42:37.181Z,76.81
2017-07-17T01:45:05.518Z,77.01
2017-07-17T01:47:33.855Z,77.00
2017-07-17T01:50:02.785Z,76.55
2017-07-17T01:52:31.140Z,76.72
2017-07-17T01:55:00.232Z,76.38
2017-07-17T01:57:29.374Z,76.50
2017-07-17T01:59:57.719Z,76.39
2017-07-17T02:02:26.050Z,76.56
2017-07-17T02:04:54.721Z,76.54
2017-07-17T02:07:23.051Z,76.52
2017-07-17T02:09:52.160Z,76.45
2017-07-17T02:12:20.822Z,76.78
2017-07-17T02:14:49.171Z,76.44
2017-07-17T02:17:17.523Z,76.52
2017-07-17T02:19:46.320Z,76.64
2017-07-17T02:22:14.660Z,76.17
2017-07-17T02:24:43.002Z,76.52
2017-07-17T02:27:11.858Z,77.60
2017-07-17T02:29:40.198Z,77.11
2017-07-17T02:32:08.547Z,77.50
2017-07-17T02:34:37.292Z,77.69
2017-07-17T02:37:05.648Z,77.36
2017-07-17T02:39:33.976Z,77.57
2017-07-17T02:42:02.942Z,77.62
2017-07-17T02:44:31.261Z,77.77
2017-07-17T02:46:59.599Z,78.00
2017-07-17T02:49:29.073Z,78.02
2017-07-17T02:51:58.283Z,78.30
2017-07-17T02:54:26.616Z,78.40
2017-07-17T02:56:55.246Z,78.37
2017-07-17T02:59:23.583Z,78.76
2017-07-17T03:01:51.931Z,78.90
2017-07-17T03:04:20.924Z,78.84
2017-07-17T03:06:49.260Z,79.05
2017-07-17T03:09:17.597Z,78.80
2017-07-17T03:11:46.364Z,78.63
2017-07-17T03:14:14.706Z,79.57
2017-07-17T03:16:43.055Z,79.65
2017-07-17T03:19:11.815Z,79.02
2017-07-17T03:21:40.160Z,78.27
2017-07-17T03:24:16.714Z,78.57
2017-07-17T03:26:45.044Z,78.58
2017-07-17T03:29:13.379Z,78.34
2017-07-17T03:31:42.194Z,78.38
2017-07-17T03:34:10.513Z,78.64
2017-07-17T03:36:38.886Z,78.12
2017-07-17T03:39:07.842Z,77.94
2017-07-17T03:41:36.165Z,77.96
2017-07-17T03:44:04.497Z,77.67
2017-07-17T03:46:34.310Z,77.56
2017-07-17T03:49:02.655Z,77.49
2017-07-17T03:51:30.988Z,77.53
2017-07-17T03:53:59.617Z,77.63
2017-07-17T03:56:27.973Z,77.86
2017-07-17T03:58:56.305Z,78.10
2017-07-17T04:01:24.961Z,78.26
2017-07-17T04:03:53.305Z,78.19
2017-07-17T04:06:22.003Z,79.44
2017-07-17T04:08:50.869Z,78.43
2017-07-17T04:11:19.219Z,77.60
2017-07-17T04:13:47.604Z,77.51
2017-07-17T04:16:16.506Z,77.06
2017-07-17T04:18:44.834Z,76.68
2017-07-17T04:21:13.221Z,76.84
2017-07-17T04:23:41.969Z,76.73
2017-07-17T04:26:10.305Z,76.05
2017-07-17T04:28:38.649Z,75.77
2017-07-17T04:31:07.818Z,76.57
2017-07-17T04:33:36.144Z,76.14
2017-07-17T04:36:04.495Z,75.38
2017-07-17T04:38:33.155Z,75.52
2017-07-17T04:41:02.267Z,75.38
2017-07-17T04:43:30.587Z,75.01
2017-07-17T04:45:59.367Z,74.90
2017-07-17T04:48:27.715Z,74.67
2017-07-17T04:50:56.049Z,74.33
2017-07-17T04:53:24.913Z,73.79
2017-07-17T04:55:53.260Z,74.07
2017-07-17T04:58:21.586Z,74.56
2017-07-17T05:00:50.409Z,74.79
2017-07-17T05:03:18.751Z,73.32
2017-07-17T05:05:47.092Z,72.77
2017-07-17T05:08:15.750Z,73.91
2017-07-17T05:10:45.230Z,73.67
2017-07-17T05:13:13.567Z,73.19
2017-07-17T05:15:42.541Z,73.49
2017-07-17T05:18:10.878Z,73.48
2017-07-17T05:20:39.204Z,73.23
2017-07-17T05:23:07.836Z,74.11
2017-07-17T05:25:36.182Z,74.31
2017-07-17T05:28:04.519Z,74.75
2017-07-17T05:30:33.410Z,73.84
2017-07-17T05:33:01.748Z,72.86
2017-07-17T05:35:30.108Z,72.15
2017-07-17T05:37:58.877Z,72.34
2017-07-17T05:40:27.223Z,72.37
2017-07-17T05:42:55.575Z,72.35
2017-07-17T05:45:24.246Z,71.92
2017-07-17T05:47:52.590Z,71.48
2017-07-17T05:50:20.958Z,71.44
2017-07-17T05:52:50.579Z,71.26
2017-07-17T05:55:18.925Z,71.69
2017-07-17T05:57:47.264Z,70.65
2017-07-17T06:00:16.425Z,70.70
2017-07-17T06:02:44.799Z,69.82
2017-07-17T06:05:13.913Z,70.11
2017-07-17T06:07:42.672Z,69.80
2017-07-17T06:10:11.032Z,69.03
2017-07-17T06:12:39.974Z,68.89
2017-07-17T06:15:08.609Z,67.84
2017-07-17T06:17:36.949Z,69.25
2017-07-17T06:20:05.302Z,68.87
2017-07-17T06:22:34.258Z,68.48
2017-07-17T06:25:02.593Z,68.41
2017-07-17T06:27:30.949Z,68.45
2017-07-17T06:29:59.847Z,67.51
2017-07-17T06:32:28.208Z,66.67
2017-07-17T06:34:56.557Z,66.60
2017-07-17T06:37:25.203Z,67.32
2017-07-17T06:39:53.539Z,66.74
2017-07-17T06:42:21.905Z,66.19
2017-07-17T06:44:50.747Z,66.46
2017-07-17T06:47:19.093Z,65.00
2017-07-17T06:49:47.427Z,63.44
2017-07-17T06:52:16.097Z,62.96
2017-07-17T06:54:44.439Z,62.71
2017-07-17T06:57:12.760Z,61.59
2017-07-17T06:59:41.425Z,59.56
2017-07-17T07:02:09.746Z,58.91
2017-07-17T07:04:38.049Z,58.92
2017-07-17T07:07:07.087Z,57.96
2017-07-17T07:09:35.421Z,57.60
2017-07-17T07:12:03.759Z,58.15
2017-07-17T07:14:32.767Z,57.67
2017-07-17T07:17:01.109Z,56.67
2017-07-17T07:19:30.202Z,56.07
2017-07-17T07:21:59.618Z,55.31
2017-07-17T07:24:27.990Z,55.71
2017-07-17T07:26:57.135Z,55.72
2017-07-17T07:29:25.943Z,53.66
2017-07-17T07:31:54.290Z,53.80
2017-07-17T07:34:22.617Z,53.67
2017-07-17T07:36:51.561Z,52.70
2017-07-17T07:39:19.887Z,52.82
2017-07-17T07:41:48.987Z,53.27
2017-07-17T07:44:18.608Z,53.23
2017-07-17T07:46:46.956Z,51.97
2017-07-17T07:49:15.277Z,52.01
2017-07-17T07:51:44.411Z,50.40
2017-07-17T07:54:12.745Z,51.00
2017-07-17T07:56:41.103Z,50.03
2017-07-17T07:59:10.530Z,48.87
2017-07-17T08:01:38.860Z,49.71
2017-07-17T08:04:07.211Z,50.11
2017-07-17T08:06:35.973Z,52.05
2017-07-17T08:09:04.316Z,51.49
2017-07-17T08:11:32.661Z,51.70
2017-07-17T08:14:01.697Z,52.19
2017-07-17T08:16:30.040Z,52.12
2017-07-17T08:18:58.382Z,51.79
2017-07-17T08:21:27.268Z,51.72
2017-07-17T08:23:55.610Z,51.41
2017-07-17T08:26:23.955Z,50.83
2017-07-17T08:28:52.611Z,50.43
2017-07-17T08:31:20.945Z,49.47
2017-07-17T08:33:49.288Z,48.85
2017-07-17T08:36:18.151Z,47.21
2017-07-17T08:38:46.502Z,47.60
2017-07-17T08:41:14.835Z,46.27
2017-07-17T08:43:43.512Z,46.93
2017-07-17T08:46:11.842Z,45.08
2017-07-17T08:48:40.168Z,44.92
2017-07-17T08:51:09.053Z,45.51
2017-07-17T08:53:37.389Z,44.43
2017-07-17T08:56:05.718Z,45.45
2017-07-17T08:58:34.890Z,45.22
2017-07-17T09:01:03.230Z,43.04
2017-07-17T09:03:31.565Z,42.68
2017-07-17T09:06:00.357Z,41.85
2017-07-17T09:08:28.700Z,42.46
2017-07-17T09:10:57.062Z,42.19
2017-07-17T09:13:25.734Z,42.00
2017-07-17T09:15:54.079Z,41.46
2017-07-17T09:18:22.409Z,40.78
2017-07-17T09:20:51.395Z,41.76
2017-07-17T09:23:19.737Z,42.69
2017-07-17T09:25:48.076Z,42.68
2017-07-17T09:28:16.901Z,43.43
2017-07-17T09:30:45.233Z,42.34
2017-07-17T09:33:13.592Z,43.20
2017-07-17T09:35:42.222Z,42.09
2017-07-17T09:38:10.563Z,41.04
2017-07-17T09:40:38.924Z,39.46
2017-07-17T09:43:07.983Z,39.75
2017-07-17T09:45:36.330Z,39.88
2017-07-17T09:48:04.656Z,40.33
2017-07-17T09:50:33.434Z,41.11
2017-07-17T09:53:01.759Z,40.22
2017-07-17T09:55:30.158Z,39.56
2017-07-17T09:57:58.935Z,38.44
2017-07-17T10:00:27.240Z,37.25
2017-07-17T10:02:56.350Z,35.78
2017-07-17T10:05:25.334Z,36.49
2017-07-17T10:07:53.676Z,35.14
2017-07-17T10:10:22.010Z,35.48
2017-07-17T10:12:50.772Z,35.33
2017-07-17T10:15:19.118Z,36.29
2017-07-17T10:17:47.437Z,35.16
2017-07-17T10:20:16.130Z,34.71
2017-07-17T10:22:45.233Z,34.75
2017-07-17T10:25:14.342Z,34.57
2017-07-17T10:27:43.316Z,34.64
2017-07-17T10:30:11.643Z,35.71
2017-07-17T10:32:39.976Z,35.90
2017-07-17T10:35:08.671Z,35.67
2017-07-17T10:37:37.047Z,35.58
2017-07-17T10:40:05.391Z,35.80
2017-07-17T10:42:33.995Z,35.74
2017-07-17T10:45:02.329Z,35.91
2017-07-17T10:47:30.661Z,35.73
2017-07-17T10:49:59.639Z,36.71
2017-07-17T10:52:27.987Z,36.61
2017-07-17T10:54:56.341Z,36.17
2017-07-17T10:57:25.002Z,35.92
2017-07-17T10:59:53.348Z,34.65
2017-07-17T11:02:21.692Z,33.87
2017-07-17T11:04:50.543Z,34.54
2017-07-17T11:07:18.890Z,32.98
2017-07-17T11:09:47.235Z,33.13
2017-07-17T11:12:15.914Z,32.00
2017-07-17T11:14:44.233Z,31.67
2017-07-17T11:17:12.578Z,32.18
2017-07-17T11:19:41.225Z,32.05
2017-07-17T11:22:09.579Z,31.83
2017-07-17T11:24:37.930Z,31.47
2017-07-17T11:27:06.669Z,31.33
2017-07-17T11:29:35.008Z,31.12
2017-07-17T11:32:03.324Z,31.42
2017-07-17T11:34:32.840Z,32.21
2017-07-17T11:37:01.184Z,32.19
2017-07-17T11:39:29.507Z,32.00
2017-07-17T11:41:58.372Z,31.41
2017-07-17T11:44:26.714Z,31.35
2017-07-17T11:57:09.923Z,28.85
2017-07-17T11:59:38.858Z,29.17
2017-07-17T12:02:07.189Z,29.75
2017-07-17T12:04:35.527Z,29.54
2017-07-17T12:07:04.299Z,29.41
2017-07-17T12:09:32.648Z,28.53
2017-07-17T12:12:01.005Z,28.12
2017-07-17T12:14:30.158Z,27.58
2017-07-17T12:16:58.579Z,28.60
2017-07-17T12:19:26.930Z,29.45
2017-07-17T12:21:55.814Z,29.72
2017-07-17T12:24:24.133Z,29.96
2017-07-17T12:26:52.486Z,30.22
2017-07-17T12:29:21.429Z,30.82
2017-07-17T12:31:49.767Z,30.79
2017-07-17T12:34:18.107Z,29.96
2017-07-17T12:36:47.320Z,30.73
2017-07-17T12:39:15.659Z,31.02
2017-07-17T12:41:44.014Z,30.20
2017-07-17T12:44:12.761Z,30.44
2017-07-17T12:46:41.110Z,31.28
2017-07-17T12:49:09.472Z,32.29
2017-07-17T12:51:38.414Z,32.38
2017-07-17T12:54:06.746Z,32.69
2017-07-17T12:56:35.077Z,32.77
2017-07-17T12:59:05.294Z,32.38
2017-07-17T13:01:33.648Z,31.58
2017-07-17T13:04:02.766Z,31.85
2017-07-17T13:06:31.436Z,32.38
2017-07-17T13:08:59.808Z,32.78
2017-07-17T13:11:28.153Z,33.74
2017-07-17T13:13:56.788Z,33.74
2017-07-17T13:16:25.111Z,33.67
2017-07-17T13:18:53.460Z,33.25
2017-07-17T13:21:22.644Z,32.42
2017-07-17T13:23:50.986Z,32.41
2017-07-17T13:26:19.339Z,32.19
2017-07-17T13:28:48.086Z,33.00
2017-07-17T13:31:16.413Z,32.32
2017-07-17T13:33:44.742Z,33.15
2017-07-17T13:36:14.396Z,33.79
2017-07-17T13:38:42.768Z,33.20
2017-07-17T13:41:11.153Z,33.07
2017-07-17T13:43:40.001Z,32.81
2017-07-17T13:46:08.358Z,32.15
2017-07-17T13:48:36.704Z,32.20
2017-07-17T13:51:05.452Z,33.26
2017-07-17T13:53:33.796Z,33.54
2017-07-17T13:56:02.160Z,33.57
2017-07-17T13:58:30.893Z,33.97
2017-07-17T14:00:59.259Z,33.59
2017-07-17T14:03:28.353Z,33.31
2017-07-17T14:05:58.161Z,33.41
2017-07-17T14:08:26.505Z,32.56
2017-07-17T14:10:54.854Z,32.84
2017-07-17T14:13:23.632Z,32.82
2017-07-17T14:15:51.968Z,32.72
2017-07-17T14:18:20.330Z,32.24
2017-07-17T14:20:49.075Z,32.46
2017-07-17T14:23:17.415Z,33.29
2017-07-17T14:25:45.785Z,33.29
2017-07-17T14:28:15.123Z,33.27
2017-07-17T14:30:43.465Z,33.03
2017-07-17T14:33:11.862Z,33.29
2017-07-17T14:35:40.677Z,32.76
2017-07-17T14:38:09.016Z,32.83
2017-07-17T14:40:37.383Z,32.52
2017-07-17T14:43:06.000Z,33.10
2017-07-17T14:45:34.343Z,33.12
2017-07-17T14:48:02.669Z,33.74
2017-07-17T14:50:32.486Z,33.07
2017-07-17T14:53:00.839Z,33.24
2017-07-17T14:55:29.170Z,34.20
2017-07-17T14:57:57.809Z,33.32
2017-07-17T15:00:26.938Z,32.71
2017-07-17T15:02:55.281Z,33.03
2017-07-17T15:05:24.228Z,33.73
2017-07-17T15:07:52.596Z,33.67
2017-07-17T15:10:20.960Z,34.65
2017-07-17T15:12:50.088Z,34.91
2017-07-17T15:15:18.409Z,35.29
2017-07-17T15:17:46.732Z,34.97
2017-07-17T15:20:15.694Z,34.93
2017-07-17T15:22:44.030Z,34.14
2017-07-17T15:25:12.385Z,34.44
2017-07-17T15:27:41.031Z,34.96
2017-07-17T15:30:10.139Z,35.04
2017-07-17T15:32:38.485Z,35.15
2017-07-17T15:35:07.621Z,34.73
2017-07-17T15:37:35.988Z,35.30
2017-07-17T15:40:04.381Z,35.55
2017-07-17T15:42:33.137Z,34.91
2017-07-17T15:45:02.261Z,34.69
2017-07-17T15:47:30.610Z,34.70
2017-07-17T15:49:59.290Z,35.03
2017-07-17T15:52:27.632Z,35.01
2017-07-17T15:54:55.975Z,34.71
2017-07-17T15:57:25.450Z,34.85
2017-07-17T15:59:53.800Z,35.19
2017-07-17T16:02:22.150Z,35.56
2017-07-17T16:04:51.149Z,35.45
2017-07-17T16:07:19.511Z,36.00
2017-07-17T16:09:47.869Z,35.50
2017-07-17T16:12:16.678Z,35.96
2017-07-17T16:14:45.053Z,36.13
2017-07-17T16:17:13.391Z,35.78
2017-07-17T16:19:42.534Z,35.95
2017-07-17T16:22:10.873Z,36.04
2017-07-17T16:24:39.210Z,36.33
2017-07-17T16:27:07.891Z,36.54
2017-07-17T16:29:36.244Z,36.63
2017-07-17T16:32:04.580Z,36.81
2017-07-17T16:34:33.428Z,37.34
2017-07-17T16:37:01.775Z,37.85
2017-07-17T16:39:30.133Z,38.29
2017-07-17T16:41:59.127Z,38.24
2017-07-17T16:44:27.488Z,38.06
2017-07-17T16:46:55.840Z,37.88
2017-07-17T16:49:24.521Z,36.67
2017-07-17T16:51:52.951Z,36.86
2017-07-17T16:54:21.298Z,36.63
2017-07-17T16:56:50.167Z,36.45
2017-07-17T16:59:18.499Z,37.45
2017-07-17T17:01:46.825Z,37.64
2017-07-17T17:04:16.652Z,37.72
2017-07-17T17:06:45.005Z,37.14
2017-07-17T17:09:14.114Z,37.52
2017-07-17T17:11:43.600Z,37.07
2017-07-17T17:14:12.734Z,37.36
2017-07-17T17:16:41.106Z,38.10
2017-07-17T17:19:10.008Z,38.93
2017-07-17T17:21:38.347Z,38.26
2017-07-17T17:24:06.685Z,39.30
2017-07-17T17:26:35.781Z,38.81
2017-07-17T17:29:04.156Z,38.87
2017-07-17T17:31:32.509Z,39.54
2017-07-17T17:34:01.127Z,39.44
2017-07-17T17:36:29.465Z,40.36
2017-07-17T17:38:58.551Z,40.21
2017-07-17T17:41:27.167Z,40.31
2017-07-17T17:43:55.535Z,40.56
2017-07-17T17:46:23.892Z,39.95
2017-07-17T17:48:52.987Z,40.16
2017-07-17T17:51:21.340Z,40.96
2017-07-17T17:53:49.795Z,40.39
2017-07-17T17:56:18.424Z,40.37
2017-07-17T17:58:46.789Z,40.17
2017-07-17T18:01:15.142Z,40.69
2017-07-17T18:03:43.999Z,41.16
2017-07-17T18:06:12.342Z,41.08
2017-07-17T18:08:40.678Z,41.19
2017-07-17T18:11:09.527Z,41.69
2017-07-17T18:13:37.870Z,42.06
2017-07-17T18:16:06.241Z,42.15
2017-07-17T18:18:34.918Z,42.41
2017-07-17T18:21:03.275Z,42.59
2017-07-17T18:23:31.620Z,42.91
2017-07-17T18:26:00.442Z,43.71
2017-07-17T18:28:28.783Z,43.68
2017-07-17T18:30:57.125Z,43.99
2017-07-17T18:33:26.165Z,44.12
2017-07-17T18:35:55.275Z,44.42
2017-07-17T18:38:24.401Z,44.62
2017-07-17T18:40:53.019Z,45.03
2017-07-17T18:43:21.362Z,45.45
2017-07-17T18:45:49.710Z,45.32
2017-07-17T18:48:18.621Z,45.63
2017-07-17T18:50:46.956Z,46.18
2017-07-17T18:53:15.306Z,46.29
2017-07-17T18:55:44.464Z,46.50
2017-07-17T18:58:12.811Z,46.81
2017-07-17T19:00:41.151Z,47.39
2017-07-17T19:03:09.883Z,47.63
2017-07-17T19:05:38.219Z,47.92
2017-07-17T19:08:06.547Z,48.14
2017-07-17T19:10:35.940Z,48.40
2017-07-17T19:13:04.318Z,48.34
2017-07-17T19:15:33.426Z,48.60
2017-07-17T19:18:03.259Z,49.23
2017-07-17T19:20:31.597Z,49.47
2017-07-17T19:22:59.977Z,49.48
2017-07-17T19:25:28.828Z,49.55
2017-07-17T19:27:57.173Z,49.78
2017-07-17T19:30:25.516Z,50.02
2017-07-17T19:32:54.366Z,51.15
2017-07-17T19:35:22.699Z,51.15
2017-07-17T19:37:51.044Z,51.60
2017-07-17T19:40:19.865Z,51.74
2017-07-17T19:42:48.214Z,52.26
2017-07-17T19:45:16.567Z,52.13
2017-07-17T19:47:45.447Z,52.34
2017-07-17T19:50:13.781Z,52.57
2017-07-17T19:52:42.113Z,53.09
2017-07-17T19:55:10.740Z,53.59
2017-07-17T19:57:39.097Z,53.58
2017-07-17T20:00:07.489Z,53.63
2017-07-17T20:02:36.381Z,53.71
2017-07-17T20:05:04.718Z,53.86
2017-07-17T20:07:33.045Z,53.91
2017-07-17T20:10:01.738Z,53.62
2017-07-17T20:12:30.074Z,53.78
2017-07-17T20:14:58.416Z,53.79
2017-07-17T20:17:28.058Z,53.48
2017-07-17T20:19:56.418Z,53.76
2017-07-17T20:22:25.548Z,53.94
2017-07-17T20:24:54.515Z,54.14
2017-07-17T20:27:22.847Z,54.62
2017-07-17T20:29:51.175Z,54.83
2017-07-17T20:32:20.200Z,55.08
2017-07-17T20:34:48.553Z,54.98
2017-07-17T20:37:16.902Z,55.13
2017-07-17T20:39:45.554Z,54.83
2017-07-17T20:42:13.893Z,55.12
2017-07-17T20:44:42.246Z,55.29
2017-07-17T20:47:12.071Z,55.42
2017-07-17T20:49:40.419Z,55.69
2017-07-17T20:52:08.780Z,55.67
2017-07-17T20:54:37.729Z,55.82
2017-07-17T20:57:06.139Z,55.49
2017-07-17T20:59:34.483Z,55.90
2017-07-17T21:02:03.176Z,56.12
2017-07-17T21:04:31.537Z,56.19
2017-07-17T21:06:59.906Z,56.50
2017-07-17T21:09:28.657Z,56.88
2017-07-17T21:11:57.027Z,56.53
2017-07-17T21:14:25.391Z,56.76
2017-07-17T21:16:54.341Z,56.92
2017-07-17T21:19:22.688Z,57.01
2017-07-17T21:21:51.022Z,57.09
2017-07-17T21:24:19.727Z,57.36
2017-07-17T21:26:48.087Z,57.87
2017-07-17T21:29:16.442Z,57.52
2017-07-17T21:31:45.244Z,57.56
2017-07-17T21:34:14.339Z,57.55
2017-07-17T21:36:43.429Z,57.54
2017-07-17T21:39:12.255Z,57.99
2017-07-17T21:41:40.591Z,58.17
2017-07-17T21:44:08.954Z,58.87
2017-07-17T21:46:37.888Z,58.94
2017-07-17T21:49:06.240Z,59.07
2017-07-17T21:51:34.578Z,59.29
2017-07-17T21:54:03.354Z,59.31
2017-07-17T21:56:31.711Z,59.33
2017-07-17T21:59:00.808Z,59.15
2017-07-17T22:01:30.214Z,59.30
2017-07-17T22:03:58.558Z,59.78
2017-07-17T22:06:26.907Z,59.74
2017-07-17T22:08:55.676Z,59.52
2017-07-17T22:11:24.025Z,59.66
2017-07-17T22:13:53.154Z,59.95
2017-07-17T22:16:21.888Z,60.24
2017-07-17T22:18:50.230Z,60.54
2017-07-17T22:21:18.583Z,60.95
2017-07-17T22:23:47.378Z,61.03
2017-07-17T22:26:15.710Z,61.82
2017-07-17T22:28:44.053Z,61.76
2017-07-17T22:31:12.917Z,61.93
2017-07-17T22:33:41.272Z,62.12
2017-07-17T22:36:09.626Z,62.22
2017-07-17T22:38:38.662Z,62.30
2017-07-17T22:41:07.014Z,62.71
2017-07-17T22:43:35.373Z,63.33
2017-07-17T22:46:04.315Z,63.11
2017-07-17T22:48:32.674Z,63.05
2017-07-17T22:51:01.787Z,63.70
2017-07-17T22:53:30.446Z,63.35
2017-07-17T22:55:58.791Z,63.13
2017-07-17T22:58:27.170Z,63.40
2017-07-17T23:00:56.270Z,63.13
2017-07-17T23:03:24.607Z,63.82
2017-07-17T23:05:53.711Z,64.67
2017-07-17T23:08:23.319Z,64.51
2017-07-17T23:10:51.658Z,64.34
2017-07-17T23:13:19.987Z,64.54
2017-07-17T23:15:48.772Z,64.62
2017-07-17T23:18:17.107Z,64.34
2017-07-17T23:20:45.451Z,64.87
2017-07-17T23:23:14.364Z,64.55
2017-07-17T23:25:42.693Z,64.83
2017-07-17T23:28:11.037Z,64.55
2017-07-17T23:30:39.862Z,64.99
2017-07-17T23:33:08.199Z,65.45
2017-07-17T23:35:36.550Z,65.95
2017-07-17T23:38:05.243Z,65.42
2017-07-17T23:40:33.586Z,65.62
2017-07-17T23:43:01.927Z,65.76
2017-07-17T23:45:30.748Z,66.25
2017-07-17T23:47:59.084Z,66.81
2017-07-17T23:50:27.450Z,67.05
2017-07-17T23:52:56.128Z,67.36
2017-07-17T23:55:24.458Z,67.79
2017-07-17T23:57:52.803Z,68.41
